X  Close Metar Aviation Weather Data     EHKD De Kooy Airport
Temperature
61°F Temperature
52°F Dewpoint
72% Humidity



Wind
15 MPH
24 KM/H
7 M/S
13 KTS



220°
SW
Current Conditions

Partly Cloudy Partly Cloudy
Pressure 1015.92 (hPa) - 30 (inHg)
Visibility 6 (mile) - 9.7 (km)
Airport
Airport-code EHKD

Location: De Kooy Airport
Distance: 34 (mi)

Metar:
EHKD 281055Z AUTO 22013KT 180V270 9999 FEW018 16/11 Q1016 BLU NOSIG

Time: 28-05-2024 12:55 CEST